Agana Heights, GU

2:07 PM ChST on February 01, 2015 (GMT +1000)
Maite | Change Station
CLOSE
Current Station
Personal Weather Station
Location: Maite, GU
Elevation: 140 ft
Nearby Weather Stations

Elev 140 ft 13.48 °N, 144.76 °E | Updated 4 seconds ago

Scattered Clouds
Scattered Clouds
82.8 °F
Feels Like 90 °F
N
18.0
Wind Variable Wind from NNW
Gusts 22.0 mph

Today
High -- | Low -- °F
--% Chance of Precip.
Yesterday
High -- | Low -- °F
Precip. -- in
6:47 AM 6:21 PM
Waxing Gibbous, 93% visible
Pressure 29.85 in
Visibility 10.0 miles
Clouds Scattered Clouds 3400 ft
Heat Index 90 °F
Dew Point 75 °F
Humidity 77%
Rainfall 0.00 in
Snow Depth Not available.
UV 7.9 out of 12
Pollen Not available.
Air Quality Not available.
Flu Activity Not available.
METAR PGUM 010354Z 02011KT 10SM SCT034 30/21 A2987 RMK AO2 SLP107 T03000211

More Conditions Fewer Conditions

Pressure 29.85 in
Visibility 10.0 miles
Clouds Scattered Clouds 3400 ft
Heat Index 90 °F
Dew Point 75 °F
Humidity 77%
Rainfall 0.00 in
Snow Depth Not available.
UV 7.9 out of 12
Pollen Not available.
Air Quality Not available.
Flu Activity Not available.
METAR PGUM 010354Z 02011KT 10SM SCT034 30/21 A2987 RMK AO2 SLP107 T03000211

More Conditions Fewer Conditions

10-Day Weather Forecast

Almanac

Astronomy

Feb. 01, 2015 Rise Set
Actual Time
Civil Twilight
Nautical Twilight
Astronomical Twilight
Moon
Length of Visible Light
Length of Day
Tomorrow will be .
, % of the Moon is Illuminated

Today's Extremes

State Highs State Lows

Community

WunderPhotos

Upload Photos

1,792,300 photos uploaded!

WunderBlogs® & News

Nearby

Air Quality

  Air Quality AQ Index Pollutant
Not available.

Snow Depth

Station Depth Elevation

Earthquake Activity

City Distance Mag. Time & Date
Minimum magnitude displayed is 2.5.

Coastal Water Temperatures

Place Temperature

Nearby Weather Stations